sensor_id;sensor_type;location;lat;lon;timestamp;P1;durP1;ratioP1;P2;durP2;ratioP2
46447;SDS011;32145;50.390;30.778;2022-11-20T00:02:04;17.77;;;8.95;;
46447;SDS011;32145;50.390;30.778;2022-11-20T00:04:48;17.80;;;9.75;;
46447;SDS011;32145;50.390;30.778;2022-11-20T00:07:33;19.35;;;9.48;;
46447;SDS011;32145;50.390;30.778;2022-11-20T00:10:17;20.13;;;10.00;;
46447;SDS011;32145;50.390;30.778;2022-11-20T00:13:01;19.98;;;9.40;;
46447;SDS011;32145;50.390;30.778;2022-11-20T00:15:45;20.98;;;10.07;;
46447;SDS011;32145;50.390;30.778;2022-11-20T00:18:29;20.58;;;9.65;;
46447;SDS011;32145;50.390;30.778;2022-11-20T00:21:13;23.00;;;10.25;;
46447;SDS011;32145;50.390;30.778;2022-11-20T00:24:01;31.55;;;11.07;;
46447;SDS011;32145;50.390;30.778;2022-11-20T00:26:46;22.45;;;10.68;;
46447;SDS011;32145;50.390;30.778;2022-11-20T00:29:29;22.13;;;10.05;;
46447;SDS011;32145;50.390;30.778;2022-11-20T00:32:13;24.58;;;10.10;;
46447;SDS011;32145;50.390;30.778;2022-11-20T00:34:57;26.05;;;11.43;;
46447;SDS011;32145;50.390;30.778;2022-11-20T00:37:41;24.38;;;10.90;;
46447;SDS011;32145;50.390;30.778;2022-11-20T00:40:27;19.13;;;10.15;;
46447;SDS011;32145;50.390;30.778;2022-11-20T00:43:11;27.20;;;11.30;;
46447;SDS011;32145;50.390;30.778;2022-11-20T00:45:58;24.17;;;11.73;;
46447;SDS011;32145;50.390;30.778;2022-11-20T00:48:43;25.95;;;11.13;;
46447;SDS011;32145;50.390;30.778;2022-11-20T00:51:28;25.27;;;12.35;;
46447;SDS011;32145;50.390;30.778;2022-11-20T00:54:12;26.20;;;10.93;;
46447;SDS011;32145;50.390;30.778;2022-11-20T00:56:57;26.33;;;11.75;;
46447;SDS011;32145;50.390;30.778;2022-11-20T00:59:41;23.38;;;11.68;;
46447;SDS011;32145;50.390;30.778;2022-11-20T01:02:25;21.60;;;10.95;;
46447;SDS011;32145;50.390;30.778;2022-11-20T01:05:09;27.75;;;11.85;;
46447;SDS011;32145;50.390;30.778;2022-11-20T01:07:55;25.13;;;11.18;;
46447;SDS011;32145;50.390;30.778;2022-11-20T01:10:39;22.17;;;10.70;;
46447;SDS011;32145;50.390;30.778;2022-11-20T01:13:25;26.83;;;12.32;;
46447;SDS011;32145;50.390;30.778;2022-11-20T01:16:10;24.00;;;11.88;;
46447;SDS011;32145;50.390;30.778;2022-11-20T01:18:56;27.92;;;11.65;;
46447;SDS011;32145;50.390;30.778;2022-11-20T01:21:42;25.15;;;11.38;;
46447;SDS011;32145;50.390;30.778;2022-11-20T01:24:27;22.75;;;11.23;;
46447;SDS011;32145;50.390;30.778;2022-11-20T01:27:11;21.73;;;11.30;;
46447;SDS011;32145;50.390;30.778;2022-11-20T01:29:56;22.88;;;10.95;;
46447;SDS011;32145;50.390;30.778;2022-11-20T01:32:40;24.17;;;11.32;;
46447;SDS011;32145;50.390;30.778;2022-11-20T01:35:24;25.10;;;11.30;;
46447;SDS011;32145;50.390;30.778;2022-11-20T01:38:08;28.63;;;10.93;;
46447;SDS011;32145;50.390;30.778;2022-11-20T01:40:55;23.35;;;10.52;;
46447;SDS011;32145;50.390;30.778;2022-11-20T01:43:40;24.48;;;11.57;;
46447;SDS011;32145;50.390;30.778;2022-11-20T01:46:25;22.45;;;11.85;;
46447;SDS011;32145;50.390;30.778;2022-11-20T01:49:10;28.60;;;11.68;;
46447;SDS011;32145;50.390;30.778;2022-11-20T01:52:01;23.63;;;11.35;;
46447;SDS011;32145;50.390;30.778;2022-11-20T01:54:48;23.15;;;11.27;;
46447;SDS011;32145;50.390;30.778;2022-11-20T01:57:38;27.23;;;12.15;;
46447;SDS011;32145;50.390;30.778;2022-11-20T02:00:24;35.30;;;13.90;;
46447;SDS011;32145;50.390;30.778;2022-11-20T02:03:10;36.97;;;14.20;;
46447;SDS011;32145;50.390;30.778;2022-11-20T02:05:57;34.85;;;14.23;;
46447;SDS011;32145;50.390;30.778;2022-11-20T02:08:48;35.20;;;14.43;;
46447;SDS011;32145;50.390;30.778;2022-11-20T02:11:31;40.67;;;15.05;;
46447;SDS011;32145;50.390;30.778;2022-11-20T02:14:16;42.42;;;16.58;;
46447;SDS011;32145;50.390;30.778;2022-11-20T02:17:00;40.33;;;15.13;;
46447;SDS011;32145;50.390;30.778;2022-11-20T02:19:45;43.13;;;15.88;;
46447;SDS011;32145;50.390;30.778;2022-11-20T02:22:31;49.83;;;17.17;;
46447;SDS011;32145;50.390;30.778;2022-11-20T02:25:24;46.35;;;16.40;;
46447;SDS011;32145;50.390;30.778;2022-11-20T02:28:09;49.38;;;17.15;;
46447;SDS011;32145;50.390;30.778;2022-11-20T02:30:53;44.00;;;16.50;;
46447;SDS011;32145;50.390;30.778;2022-11-20T02:33:37;38.30;;;15.45;;
46447;SDS011;32145;50.390;30.778;2022-11-20T02:36:21;41.08;;;14.60;;
46447;SDS011;32145;50.390;30.778;2022-11-20T02:39:06;42.75;;;15.35;;
46447;SDS011;32145;50.390;30.778;2022-11-20T02:41:53;34.88;;;14.23;;
46447;SDS011;32145;50.390;30.778;2022-11-20T02:44:37;46.15;;;16.77;;
46447;SDS011;32145;50.390;30.778;2022-11-20T02:47:21;44.70;;;16.38;;
46447;SDS011;32145;50.390;30.778;2022-11-20T02:50:05;46.13;;;17.60;;
46447;SDS011;32145;50.390;30.778;2022-11-20T02:52:50;41.05;;;15.82;;
46447;SDS011;32145;50.390;30.778;2022-11-20T02:55:34;44.60;;;16.33;;
46447;SDS011;32145;50.390;30.778;2022-11-20T02:58:20;35.60;;;15.13;;
46447;SDS011;32145;50.390;30.778;2022-11-20T03:01:04;31.00;;;13.98;;
46447;SDS011;32145;50.390;30.778;2022-11-20T03:03:49;33.10;;;14.45;;
46447;SDS011;32145;50.390;30.778;2022-11-20T03:06:32;36.88;;;14.35;;
46447;SDS011;32145;50.390;30.778;2022-11-20T03:09:16;35.00;;;14.52;;
46447;SDS011;32145;50.390;30.778;2022-11-20T03:12:00;33.63;;;13.55;;
46447;SDS011;32145;50.390;30.778;2022-11-20T03:14:46;33.72;;;13.80;;
46447;SDS011;32145;50.390;30.778;2022-11-20T03:17:29;34.40;;;13.75;;
46447;SDS011;32145;50.390;30.778;2022-11-20T03:20:14;34.65;;;13.82;;
46447;SDS011;32145;50.390;30.778;2022-11-20T03:22:58;36.65;;;15.45;;
46447;SDS011;32145;50.390;30.778;2022-11-20T03:25:42;34.85;;;14.90;;
46447;SDS011;32145;50.390;30.778;2022-11-20T03:28:26;35.05;;;14.70;;
46447;SDS011;32145;50.390;30.778;2022-11-20T03:31:12;34.85;;;15.43;;
46447;SDS011;32145;50.390;30.778;2022-11-20T03:33:57;37.75;;;16.08;;
46447;SDS011;32145;50.390;30.778;2022-11-20T03:36:42;35.03;;;15.80;;
46447;SDS011;32145;50.390;30.778;2022-11-20T03:39:26;36.65;;;16.60;;
46447;SDS011;32145;50.390;30.778;2022-11-20T03:42:10;36.70;;;15.40;;
46447;SDS011;32145;50.390;30.778;2022-11-20T03:44:54;41.33;;;16.05;;
46447;SDS011;32145;50.390;30.778;2022-11-20T03:47:40;37.58;;;16.20;;
46447;SDS011;32145;50.390;30.778;2022-11-20T03:50:24;28.92;;;14.32;;
46447;SDS011;32145;50.390;30.778;2022-11-20T03:53:08;27.75;;;13.65;;
46447;SDS011;32145;50.390;30.778;2022-11-20T03:55:52;28.00;;;13.48;;
46447;SDS011;32145;50.390;30.778;2022-11-20T03:58:37;28.17;;;13.32;;
46447;SDS011;32145;50.390;30.778;2022-11-20T04:01:22;28.17;;;14.10;;
46447;SDS011;32145;50.390;30.778;2022-11-20T04:04:09;29.98;;;13.52;;
46447;SDS011;32145;50.390;30.778;2022-11-20T04:06:53;29.27;;;14.73;;
46447;SDS011;32145;50.390;30.778;2022-11-20T04:09:37;31.60;;;15.32;;
46447;SDS011;32145;50.390;30.778;2022-11-20T04:12:21;29.55;;;13.93;;
46447;SDS011;32145;50.390;30.778;2022-11-20T04:15:05;29.13;;;14.48;;
46447;SDS011;32145;50.390;30.778;2022-11-20T04:17:50;30.65;;;14.95;;
46447;SDS011;32145;50.390;30.778;2022-11-20T04:20:35;28.73;;;14.40;;
46447;SDS011;32145;50.390;30.778;2022-11-20T04:23:19;29.30;;;14.63;;
46447;SDS011;32145;50.390;30.778;2022-11-20T04:26:04;29.88;;;14.68;;
46447;SDS011;32145;50.390;30.778;2022-11-20T04:28:49;29.10;;;13.82;;
46447;SDS011;32145;50.390;30.778;2022-11-20T04:31:34;27.33;;;14.13;;
46447;SDS011;32145;50.390;30.778;2022-11-20T04:34:18;29.77;;;15.20;;
46447;SDS011;32145;50.390;30.778;2022-11-20T04:37:04;27.83;;;15.07;;
46447;SDS011;32145;50.390;30.778;2022-11-20T04:39:48;31.00;;;15.32;;
46447;SDS011;32145;50.390;30.778;2022-11-20T04:42:32;28.23;;;15.90;;
46447;SDS011;32145;50.390;30.778;2022-11-20T04:45:16;30.83;;;15.32;;
46447;SDS011;32145;50.390;30.778;2022-11-20T04:48:00;35.45;;;16.35;;
46447;SDS011;32145;50.390;30.778;2022-11-20T04:50:44;58.85;;;26.45;;
46447;SDS011;32145;50.390;30.778;2022-11-20T04:53:29;47.08;;;22.55;;
46447;SDS011;32145;50.390;30.778;2022-11-20T04:56:13;43.55;;;20.58;;
46447;SDS011;32145;50.390;30.778;2022-11-20T04:58:59;40.15;;;20.33;;
46447;SDS011;32145;50.390;30.778;2022-11-20T05:01:44;35.83;;;18.30;;
46447;SDS011;32145;50.390;30.778;2022-11-20T05:04:28;38.80;;;20.73;;
46447;SDS011;32145;50.390;30.778;2022-11-20T05:07:12;44.10;;;21.52;;
46447;SDS011;32145;50.390;30.778;2022-11-20T05:09:58;42.83;;;20.77;;
46447;SDS011;32145;50.390;30.778;2022-11-20T05:12:41;48.53;;;23.80;;
46447;SDS011;32145;50.390;30.778;2022-11-20T05:15:25;47.15;;;23.60;;
46447;SDS011;32145;50.390;30.778;2022-11-20T05:18:09;47.83;;;23.33;;
46447;SDS011;32145;50.390;30.778;2022-11-20T05:20:54;44.42;;;21.75;;
46447;SDS011;32145;50.390;30.778;2022-11-20T05:23:39;38.65;;;20.17;;
46447;SDS011;32145;50.390;30.778;2022-11-20T05:26:25;34.88;;;19.45;;
46447;SDS011;32145;50.390;30.778;2022-11-20T05:29:09;39.17;;;19.25;;
46447;SDS011;32145;50.390;30.778;2022-11-20T05:31:54;39.50;;;18.88;;
46447;SDS011;32145;50.390;30.778;2022-11-20T05:34:38;36.92;;;18.63;;
46447;SDS011;32145;50.390;30.778;2022-11-20T05:37:22;34.90;;;17.60;;
46447;SDS011;32145;50.390;30.778;2022-11-20T05:40:06;33.33;;;17.27;;
46447;SDS011;32145;50.390;30.778;2022-11-20T05:42:52;34.10;;;16.35;;
46447;SDS011;32145;50.390;30.778;2022-11-20T05:45:36;29.67;;;15.15;;
46447;SDS011;32145;50.390;30.778;2022-11-20T05:48:20;32.35;;;15.32;;
46447;SDS011;32145;50.390;30.778;2022-11-20T05:51:06;32.28;;;15.55;;
46447;SDS011;32145;50.390;30.778;2022-11-20T05:53:51;40.03;;;19.30;;
46447;SDS011;32145;50.390;30.778;2022-11-20T05:56:35;39.42;;;19.67;;
46447;SDS011;32145;50.390;30.778;2022-11-20T05:59:20;39.35;;;17.75;;
46447;SDS011;32145;50.390;30.778;2022-11-20T06:02:04;35.95;;;18.30;;
46447;SDS011;32145;50.390;30.778;2022-11-20T06:04:48;39.45;;;18.38;;
46447;SDS011;32145;50.390;30.778;2022-11-20T06:07:32;39.42;;;18.33;;
46447;SDS011;32145;50.390;30.778;2022-11-20T06:10:16;41.00;;;18.85;;
46447;SDS011;32145;50.390;30.778;2022-11-20T06:12:59;42.13;;;20.02;;
46447;SDS011;32145;50.390;30.778;2022-11-20T06:15:49;45.95;;;22.27;;
46447;SDS011;32145;50.390;30.778;2022-11-20T06:21:17;37.90;;;19.75;;
46447;SDS011;32145;50.390;30.778;2022-11-20T06:24:03;40.90;;;20.85;;
46447;SDS011;32145;50.390;30.778;2022-11-20T06:26:47;40.60;;;21.30;;
46447;SDS011;32145;50.390;30.778;2022-11-20T06:29:31;42.25;;;20.88;;
46447;SDS011;32145;50.390;30.778;2022-11-20T06:32:17;39.75;;;18.98;;
46447;SDS011;32145;50.390;30.778;2022-11-20T06:35:00;35.53;;;18.05;;
46447;SDS011;32145;50.390;30.778;2022-11-20T06:37:44;33.67;;;16.80;;
46447;SDS011;32145;50.390;30.778;2022-11-20T06:40:28;38.38;;;17.92;;
46447;SDS011;32145;50.390;30.778;2022-11-20T06:43:12;35.70;;;18.42;;
46447;SDS011;32145;50.390;30.778;2022-11-20T06:45:57;35.20;;;16.90;;
46447;SDS011;32145;50.390;30.778;2022-11-20T06:48:44;37.85;;;18.80;;
46447;SDS011;32145;50.390;30.778;2022-11-20T06:51:29;33.13;;;17.50;;
46447;SDS011;32145;50.390;30.778;2022-11-20T06:54:13;32.25;;;16.80;;
46447;SDS011;32145;50.390;30.778;2022-11-20T06:56:57;35.35;;;17.33;;
46447;SDS011;32145;50.390;30.778;2022-11-20T06:59:41;34.45;;;17.20;;
46447;SDS011;32145;50.390;30.778;2022-11-20T07:02:24;30.65;;;16.30;;
46447;SDS011;32145;50.390;30.778;2022-11-20T07:05:10;34.17;;;17.15;;
46447;SDS011;32145;50.390;30.778;2022-11-20T07:07:55;32.20;;;18.80;;
46447;SDS011;32145;50.390;30.778;2022-11-20T07:10:39;33.58;;;18.13;;
46447;SDS011;32145;50.390;30.778;2022-11-20T07:13:23;35.05;;;18.92;;
46447;SDS011;32145;50.390;30.778;2022-11-20T07:16:07;32.15;;;17.60;;
46447;SDS011;32145;50.390;30.778;2022-11-20T07:18:52;32.67;;;18.58;;
46447;SDS011;32145;50.390;30.778;2022-11-20T07:21:37;36.95;;;19.13;;
46447;SDS011;32145;50.390;30.778;2022-11-20T07:24:22;33.05;;;18.80;;
46447;SDS011;32145;50.390;30.778;2022-11-20T07:27:06;33.63;;;19.45;;
46447;SDS011;32145;50.390;30.778;2022-11-20T07:29:50;36.20;;;21.27;;
46447;SDS011;32145;50.390;30.778;2022-11-20T07:32:34;34.80;;;19.63;;
46447;SDS011;32145;50.390;30.778;2022-11-20T07:35:17;36.63;;;22.30;;
46447;SDS011;32145;50.390;30.778;2022-11-20T07:38:03;33.53;;;19.48;;
46447;SDS011;32145;50.390;30.778;2022-11-20T07:40:47;36.28;;;21.73;;
46447;SDS011;32145;50.390;30.778;2022-11-20T07:43:31;30.80;;;18.90;;
46447;SDS011;32145;50.390;30.778;2022-11-20T07:46:15;41.05;;;24.73;;
46447;SDS011;32145;50.390;30.778;2022-11-20T07:48:59;32.85;;;19.60;;
46447;SDS011;32145;50.390;30.778;2022-11-20T07:51:43;37.08;;;24.38;;
46447;SDS011;32145;50.390;30.778;2022-11-20T07:54:28;28.20;;;17.80;;
46447;SDS011;32145;50.390;30.778;2022-11-20T07:57:12;33.53;;;19.08;;
46447;SDS011;32145;50.390;30.778;2022-11-20T07:59:56;33.42;;;21.38;;
46447;SDS011;32145;50.390;30.778;2022-11-20T08:02:40;52.58;;;27.83;;
46447;SDS011;32145;50.390;30.778;2022-11-20T08:05:24;46.40;;;24.00;;
46447;SDS011;32145;50.390;30.778;2022-11-20T08:08:08;33.35;;;18.67;;
46447;SDS011;32145;50.390;30.778;2022-11-20T08:10:55;31.75;;;17.10;;
46447;SDS011;32145;50.390;30.778;2022-11-20T08:13:40;44.42;;;21.42;;
46447;SDS011;32145;50.390;30.778;2022-11-20T08:16:24;30.33;;;17.10;;
46447;SDS011;32145;50.390;30.778;2022-11-20T08:19:08;35.42;;;18.08;;
46447;SDS011;32145;50.390;30.778;2022-11-20T08:21:52;40.35;;;20.20;;
46447;SDS011;32145;50.390;30.778;2022-11-20T08:24:36;39.22;;;20.52;;
46447;SDS011;32145;50.390;30.778;2022-11-20T08:27:21;58.30;;;26.55;;
46447;SDS011;32145;50.390;30.778;2022-11-20T08:30:06;33.38;;;18.90;;
46447;SDS011;32145;50.390;30.778;2022-11-20T08:32:51;34.50;;;19.48;;
46447;SDS011;32145;50.390;30.778;2022-11-20T08:35:36;28.02;;;16.05;;
46447;SDS011;32145;50.390;30.778;2022-11-20T08:38:21;49.45;;;23.80;;
46447;SDS011;32145;50.390;30.778;2022-11-20T08:41:05;34.72;;;19.35;;
46447;SDS011;32145;50.390;30.778;2022-11-20T08:43:52;41.95;;;23.17;;
46447;SDS011;32145;50.390;30.778;2022-11-20T08:46:38;67.13;;;38.10;;
46447;SDS011;32145;50.390;30.778;2022-11-20T08:49:23;25.38;;;14.57;;
46447;SDS011;32145;50.390;30.778;2022-11-20T08:52:07;25.67;;;15.90;;
46447;SDS011;32145;50.390;30.778;2022-11-20T08:54:51;24.50;;;14.88;;
46447;SDS011;32145;50.390;30.778;2022-11-20T08:57:35;22.52;;;14.07;;
46447;SDS011;32145;50.390;30.778;2022-11-20T09:00:21;20.63;;;12.02;;
46447;SDS011;32145;50.390;30.778;2022-11-20T09:03:05;22.55;;;13.77;;
46447;SDS011;32145;50.390;30.778;2022-11-20T09:05:49;21.02;;;13.13;;
46447;SDS011;32145;50.390;30.778;2022-11-20T09:08:46;23.60;;;13.40;;
46447;SDS011;32145;50.390;30.778;2022-11-20T09:14:14;21.38;;;13.05;;
46447;SDS011;32145;50.390;30.778;2022-11-20T09:16:59;20.55;;;12.77;;
46447;SDS011;32145;50.390;30.778;2022-11-20T09:19:43;21.33;;;12.88;;
46447;SDS011;32145;50.390;30.778;2022-11-20T09:22:27;26.10;;;13.73;;
46447;SDS011;32145;50.390;30.778;2022-11-20T09:25:11;23.60;;;13.80;;
46447;SDS011;32145;50.390;30.778;2022-11-20T09:27:56;24.20;;;14.60;;
46447;SDS011;32145;50.390;30.778;2022-11-20T09:30:41;24.40;;;14.68;;
46447;SDS011;32145;50.390;30.778;2022-11-20T09:33:26;25.20;;;15.48;;
46447;SDS011;32145;50.390;30.778;2022-11-20T09:36:10;22.05;;;14.38;;
46447;SDS011;32145;50.390;30.778;2022-11-20T09:38:54;24.67;;;14.82;;
46447;SDS011;32145;50.390;30.778;2022-11-20T09:41:45;23.67;;;15.52;;
46447;SDS011;32145;50.390;30.778;2022-11-20T09:44:47;26.58;;;15.43;;
46447;SDS011;32145;50.390;30.778;2022-11-20T09:50:33;24.38;;;15.25;;
46447;SDS011;32145;50.390;30.778;2022-11-20T09:56:11;24.70;;;15.48;;
46447;SDS011;32145;50.390;30.778;2022-11-20T09:58:59;23.08;;;15.25;;
46447;SDS011;32145;50.390;30.778;2022-11-20T10:01:49;24.35;;;14.68;;
46447;SDS011;32145;50.390;30.778;2022-11-20T10:04:44;22.20;;;14.38;;
46447;SDS011;32145;50.390;30.778;2022-11-20T10:07:39;23.52;;;14.55;;
46447;SDS011;32145;50.390;30.778;2022-11-20T10:10:29;22.77;;;14.32;;
46447;SDS011;32145;50.390;30.778;2022-11-20T10:13:20;24.50;;;15.68;;
46447;SDS011;32145;50.390;30.778;2022-11-20T10:16:16;28.25;;;17.45;;
46447;SDS011;32145;50.390;30.778;2022-11-20T10:19:11;24.25;;;14.63;;
46447;SDS011;32145;50.390;30.778;2022-11-20T10:22:05;22.55;;;12.85;;
46447;SDS011;32145;50.390;30.778;2022-11-20T10:25:02;21.98;;;13.48;;
46447;SDS011;32145;50.390;30.778;2022-11-20T10:28:02;35.63;;;17.00;;
46447;SDS011;32145;50.390;30.778;2022-11-20T10:31:00;26.83;;;16.10;;
46447;SDS011;32145;50.390;30.778;2022-11-20T10:33:46;38.33;;;18.38;;
46447;SDS011;32145;50.390;30.778;2022-11-20T10:36:33;24.98;;;14.85;;
46447;SDS011;32145;50.390;30.778;2022-11-20T10:39:24;23.48;;;14.50;;
46447;SDS011;32145;50.390;30.778;2022-11-20T10:42:16;27.13;;;16.88;;
46447;SDS011;32145;50.390;30.778;2022-11-20T10:45:13;24.30;;;14.77;;
46447;SDS011;32145;50.390;30.778;2022-11-20T10:48:07;22.50;;;13.95;;
46447;SDS011;32145;50.390;30.778;2022-11-20T10:51:02;24.77;;;14.80;;
46447;SDS011;32145;50.390;30.778;2022-11-20T10:54:03;21.90;;;13.80;;
46447;SDS011;32145;50.390;30.778;2022-11-20T10:57:00;22.10;;;13.00;;
46447;SDS011;32145;50.390;30.778;2022-11-20T11:00:03;24.77;;;14.73;;
46447;SDS011;32145;50.390;30.778;2022-11-20T11:02:49;25.50;;;13.55;;
46447;SDS011;32145;50.390;30.778;2022-11-20T11:05:36;23.05;;;13.45;;
46447;SDS011;32145;50.390;30.778;2022-11-20T11:08:23;23.58;;;15.50;;
46447;SDS011;32145;50.390;30.778;2022-11-20T11:11:17;22.48;;;13.82;;
46447;SDS011;32145;50.390;30.778;2022-11-20T11:14:04;23.23;;;13.82;;
46447;SDS011;32145;50.390;30.778;2022-11-20T11:16:51;26.05;;;15.82;;
46447;SDS011;32145;50.390;30.778;2022-11-20T11:19:37;23.95;;;14.65;;
46447;SDS011;32145;50.390;30.778;2022-11-20T11:22:21;23.08;;;15.15;;
46447;SDS011;32145;50.390;30.778;2022-11-20T11:25:07;21.48;;;13.75;;
46447;SDS011;32145;50.390;30.778;2022-11-20T11:28:03;24.77;;;14.90;;
46447;SDS011;32145;50.390;30.778;2022-11-20T11:30:48;25.90;;;16.83;;
46447;SDS011;32145;50.390;30.778;2022-11-20T11:33:34;24.40;;;15.02;;
46447;SDS011;32145;50.390;30.778;2022-11-20T11:36:19;21.90;;;13.05;;
46447;SDS011;32145;50.390;30.778;2022-11-20T11:39:06;23.67;;;14.30;;
46447;SDS011;32145;50.390;30.778;2022-11-20T11:41:58;23.75;;;12.65;;
46447;SDS011;32145;50.390;30.778;2022-11-20T11:44:44;19.27;;;11.85;;
46447;SDS011;32145;50.390;30.778;2022-11-20T11:47:31;19.90;;;12.00;;
46447;SDS011;32145;50.390;30.778;2022-11-20T11:50:20;17.42;;;10.60;;
46447;SDS011;32145;50.390;30.778;2022-11-20T11:53:08;18.30;;;11.67;;
46447;SDS011;32145;50.390;30.778;2022-11-20T11:55:56;19.73;;;11.88;;
46447;SDS011;32145;50.390;30.778;2022-11-20T11:58:47;18.48;;;10.60;;
46447;SDS011;32145;50.390;30.778;2022-11-20T12:01:34;16.90;;;10.57;;
46447;SDS011;32145;50.390;30.778;2022-11-20T12:04:28;17.10;;;10.10;;
46447;SDS011;32145;50.390;30.778;2022-11-20T12:07:29;20.70;;;12.15;;
46447;SDS011;32145;50.390;30.778;2022-11-20T12:10:36;14.77;;;9.18;;
46447;SDS011;32145;50.390;30.778;2022-11-20T12:13:28;17.98;;;10.15;;
46447;SDS011;32145;50.390;30.778;2022-11-20T12:16:20;17.25;;;10.60;;
46447;SDS011;32145;50.390;30.778;2022-11-20T12:19:07;16.58;;;10.07;;
46447;SDS011;32145;50.390;30.778;2022-11-20T12:21:55;15.93;;;10.23;;
46447;SDS011;32145;50.390;30.778;2022-11-20T12:24:50;17.92;;;10.23;;
46447;SDS011;32145;50.390;30.778;2022-11-20T12:27:43;18.63;;;10.85;;
46447;SDS011;32145;50.390;30.778;2022-11-20T12:30:41;19.40;;;11.30;;
46447;SDS011;32145;50.390;30.778;2022-11-20T12:33:40;16.98;;;10.05;;
46447;SDS011;32145;50.390;30.778;2022-11-20T12:36:38;17.85;;;9.75;;
46447;SDS011;32145;50.390;30.778;2022-11-20T12:39:30;17.63;;;10.52;;
46447;SDS011;32145;50.390;30.778;2022-11-20T12:42:44;15.73;;;9.45;;
46447;SDS011;32145;50.390;30.778;2022-11-20T12:45:42;17.75;;;10.30;;
46447;SDS011;32145;50.390;30.778;2022-11-20T12:48:51;14.45;;;9.27;;
46447;SDS011;32145;50.390;30.778;2022-11-20T12:51:51;18.45;;;10.63;;
46447;SDS011;32145;50.390;30.778;2022-11-20T12:54:54;15.15;;;9.63;;
46447;SDS011;32145;50.390;30.778;2022-11-20T13:00:34;17.42;;;10.30;;
46447;SDS011;32145;50.390;30.778;2022-11-20T13:03:29;20.25;;;11.45;;
46447;SDS011;32145;50.390;30.778;2022-11-20T13:06:21;18.42;;;10.73;;
46447;SDS011;32145;50.390;30.778;2022-11-20T13:09:06;18.98;;;10.73;;
46447;SDS011;32145;50.390;30.778;2022-11-20T13:11:56;17.92;;;10.73;;
46447;SDS011;32145;50.390;30.778;2022-11-20T13:14:52;17.33;;;10.27;;
46447;SDS011;32145;50.390;30.778;2022-11-20T13:17:46;19.85;;;11.88;;
46447;SDS011;32145;50.390;30.778;2022-11-20T13:20:35;20.20;;;11.65;;
46447;SDS011;32145;50.390;30.778;2022-11-20T13:23:24;21.48;;;12.35;;
46447;SDS011;32145;50.390;30.778;2022-11-20T13:26:17;28.48;;;14.80;;
46447;SDS011;32145;50.390;30.778;2022-11-20T13:29:07;19.50;;;11.35;;
46447;SDS011;32145;50.390;30.778;2022-11-20T13:32:02;18.58;;;10.55;;
46447;SDS011;32145;50.390;30.778;2022-11-20T13:34:54;18.25;;;10.30;;
46447;SDS011;32145;50.390;30.778;2022-11-20T13:37:39;20.25;;;10.68;;
46447;SDS011;32145;50.390;30.778;2022-11-20T13:40:23;22.27;;;10.57;;
46447;SDS011;32145;50.390;30.778;2022-11-20T13:43:10;19.35;;;10.10;;
46447;SDS011;32145;50.390;30.778;2022-11-20T13:46:02;16.75;;;8.90;;
46447;SDS011;32145;50.390;30.778;2022-11-20T13:48:49;17.42;;;10.25;;
46447;SDS011;32145;50.390;30.778;2022-11-20T13:51:37;16.70;;;9.95;;
46447;SDS011;32145;50.390;30.778;2022-11-20T13:57:48;32.03;;;16.20;;
46447;SDS011;32145;50.390;30.778;2022-11-20T14:00:48;35.03;;;16.65;;
46447;SDS011;32145;50.390;30.778;2022-11-20T14:03:39;26.08;;;13.65;;
46447;SDS011;32145;50.390;30.778;2022-11-20T14:06:25;19.33;;;11.13;;
46447;SDS011;32145;50.390;30.778;2022-11-20T14:09:12;21.42;;;11.65;;
46447;SDS011;32145;50.390;30.778;2022-11-20T14:11:57;22.48;;;11.80;;
46447;SDS011;32145;50.390;30.778;2022-11-20T14:14:47;16.55;;;9.73;;
46447;SDS011;32145;50.390;30.778;2022-11-20T14:17:34;17.58;;;10.05;;
46447;SDS011;32145;50.390;30.778;2022-11-20T14:20:19;16.60;;;9.57;;
46447;SDS011;32145;50.390;30.778;2022-11-20T14:23:08;14.73;;;9.00;;
46447;SDS011;32145;50.390;30.778;2022-11-20T14:25:54;15.10;;;8.50;;
46447;SDS011;32145;50.390;30.778;2022-11-20T14:28:39;14.57;;;8.77;;
46447;SDS011;32145;50.390;30.778;2022-11-20T14:31:24;16.52;;;10.07;;
46447;SDS011;32145;50.390;30.778;2022-11-20T14:34:12;17.85;;;10.68;;
46447;SDS011;32145;50.390;30.778;2022-11-20T14:37:00;19.02;;;11.25;;
46447;SDS011;32145;50.390;30.778;2022-11-20T14:39:49;20.27;;;12.10;;
46447;SDS011;32145;50.390;30.778;2022-11-20T14:42:35;20.17;;;11.90;;
46447;SDS011;32145;50.390;30.778;2022-11-20T14:45:19;18.65;;;10.90;;
46447;SDS011;32145;50.390;30.778;2022-11-20T14:48:04;21.20;;;11.70;;
46447;SDS011;32145;50.390;30.778;2022-11-20T14:50:49;22.95;;;13.23;;
46447;SDS011;32145;50.390;30.778;2022-11-20T14:53:33;25.55;;;13.70;;
46447;SDS011;32145;50.390;30.778;2022-11-20T14:56:22;23.77;;;13.68;;
46447;SDS011;32145;50.390;30.778;2022-11-20T14:59:07;20.48;;;11.50;;
46447;SDS011;32145;50.390;30.778;2022-11-20T15:01:56;20.65;;;9.90;;
46447;SDS011;32145;50.390;30.778;2022-11-20T15:04:46;20.02;;;11.18;;
46447;SDS011;32145;50.390;30.778;2022-11-20T15:07:32;21.08;;;11.60;;
46447;SDS011;32145;50.390;30.778;2022-11-20T15:10:22;18.38;;;10.50;;
46447;SDS011;32145;50.390;30.778;2022-11-20T15:13:12;19.77;;;11.77;;
46447;SDS011;32145;50.390;30.778;2022-11-20T15:15:59;19.38;;;11.18;;
46447;SDS011;32145;50.390;30.778;2022-11-20T15:18:44;19.90;;;11.43;;
46447;SDS011;32145;50.390;30.778;2022-11-20T15:21:29;20.92;;;11.13;;
46447;SDS011;32145;50.390;30.778;2022-11-20T15:24:13;21.80;;;12.00;;
46447;SDS011;32145;50.390;30.778;2022-11-20T15:26:57;24.38;;;11.95;;
46447;SDS011;32145;50.390;30.778;2022-11-20T15:29:42;19.23;;;11.05;;
46447;SDS011;32145;50.390;30.778;2022-11-20T15:32:27;19.48;;;10.40;;
46447;SDS011;32145;50.390;30.778;2022-11-20T15:35:10;17.15;;;8.55;;
46447;SDS011;32145;50.390;30.778;2022-11-20T15:37:55;15.35;;;9.75;;
46447;SDS011;32145;50.390;30.778;2022-11-20T15:40:39;20.75;;;10.30;;
46447;SDS011;32145;50.390;30.778;2022-11-20T15:43:24;18.52;;;10.15;;
46447;SDS011;32145;50.390;30.778;2022-11-20T15:46:10;19.02;;;10.50;;
46447;SDS011;32145;50.390;30.778;2022-11-20T15:51:44;17.98;;;9.55;;
46447;SDS011;32145;50.390;30.778;2022-11-20T15:54:30;19.00;;;10.75;;
46447;SDS011;32145;50.390;30.778;2022-11-20T15:57:14;17.75;;;10.07;;
46447;SDS011;32145;50.390;30.778;2022-11-20T15:59:59;23.98;;;11.35;;
46447;SDS011;32145;50.390;30.778;2022-11-20T16:02:44;18.52;;;10.07;;
46447;SDS011;32145;50.390;30.778;2022-11-20T16:05:28;17.23;;;9.93;;
46447;SDS011;32145;50.390;30.778;2022-11-20T16:08:13;18.92;;;10.45;;
46447;SDS011;32145;50.390;30.778;2022-11-20T16:10:57;19.00;;;10.73;;
46447;SDS011;32145;50.390;30.778;2022-11-20T16:13:41;19.48;;;11.18;;
46447;SDS011;32145;50.390;30.778;2022-11-20T16:16:27;16.02;;;9.15;;
46447;SDS011;32145;50.390;30.778;2022-11-20T16:19:14;22.15;;;11.40;;
46447;SDS011;32145;50.390;30.778;2022-11-20T16:21:58;19.38;;;11.10;;